Time;durP1;ratioP1;P1;durP2;ratioP2;P2;SDS_P1;SDS_P2;PMS_P1;PMS_P2;Temp;Humidity;BMP_temperature;BMP_pressure;BME280_temperature;BME280_humidity;BME280_pressure;Samples;Min_cycle;Max_cycle;Signal;HPM_P1;HPM_P2
2023/08/31 00:01:38;;;;;;;;;;;;;;;;;;;;;
2023/08/31 00:05:22;;;;;;;;;;;;;;;;;;;;;
2023/08/31 00:08:52;;;;;;;7.93;1.27;;;13.10;99.90;;;;;;6141763;23;20086;-94
2023/08/31 00:12:13;;;;;;;6.53;1.35;;;13.10;99.90;;;;;;6030464;23;20108;-93
2023/08/31 00:15:27;;;;;;;;;;;;;;;;;;;;;
2023/08/31 00:18:36;;;;;;;3.95;1.17;;;13.00;99.90;;;;;;6164913;23;20016;-93
2023/08/31 00:25:06;;;;;;;;;;;;;;;;;;;;;
2023/08/31 00:28:19;;;;;;;4.28;1.02;;;12.90;99.90;;;;;;6107460;23;20035;-94
2023/08/31 00:31:10;;;;;;;3.15;1.20;;;12.80;99.90;;;;;;6123955;23;20020;-93
2023/08/31 00:34:40;;;;;;;;;;;;;;;;;;;;;
2023/08/31 00:37:21;;;;;;;7.63;1.40;;;12.80;99.90;;;;;;6118816;23;20068;-93
2023/08/31 00:40:23;;;;;;;6.43;1.63;;;12.80;99.90;;;;;;6099299;23;20060;-93
2023/08/31 00:43:25;;;;;;;6.93;1.15;;;12.70;99.90;;;;;;6097539;23;20020;-93
2023/08/31 00:46:37;;;;;;;4.03;1.25;;;12.70;99.90;;;;;;6097789;23;20013;-92
2023/08/31 00:49:09;;;;;;;4.95;1.30;;;12.70;99.90;;;;;;6115080;23;20020;-93
2023/08/31 00:51:50;;;;;;;5.82;1.00;;;12.60;99.90;;;;;;6094076;23;20021;-92
2023/08/31 00:54:43;;;;;;;;;;;;;;;;;;;;;
2023/08/31 01:01:16;;;;;;;3.53;1.10;;;12.50;99.90;;;;;;6134819;23;20322;-92
2023/08/31 01:04:51;;;;;;;5.20;1.17;;;12.50;99.90;;;;;;6111744;23;20015;-92
2023/08/31 01:07:55;;;;;;;4.50;1.20;;;12.50;99.90;;;;;;6141631;23;20263;-92
2023/08/31 01:10:57;;;;;;;5.10;1.40;;;12.50;99.90;;;;;;6141095;23;20005;-92
2023/08/31 01:13:56;;;;;;;4.90;1.30;;;12.50;99.90;;;;;;6143136;23;20005;-92
2023/08/31 01:17:00;;;;;;;3.67;1.10;;;12.50;99.90;;;;;;6140069;23;20036;-93
2023/08/31 01:23:20;;;;;;;4.35;1.30;;;12.50;99.90;;;;;;6129289;23;20013;-93
2023/08/31 01:26:19;;;;;;;4.50;1.02;;;12.50;99.90;;;;;;6147499;23;20009;-95
2023/08/31 01:29:13;;;;;;;4.65;1.10;;;12.40;99.90;;;;;;6124664;23;20009;-92
2023/08/31 01:32:15;;;;;;;5.18;1.50;;;12.50;99.90;;;;;;6128103;23;20009;-92
2023/08/31 01:35:03;;;;;;;;;;;;;;;;;;;;;
2023/08/31 01:45:49;;;;;;;6.95;1.60;;;12.50;99.90;;;;;;6164614;23;20075;-93
2023/08/31 01:49:05;;;;;;;4.30;1.40;;;12.50;99.90;;;;;;6143247;23;20266;-93
2023/08/31 01:52:05;;;;;;;;;;;;;;;;;;;;;
2023/08/31 01:54:51;;;;;;;5.50;1.17;;;12.50;99.90;;;;;;6149626;23;20021;-94
2023/08/31 01:57:35;;;;;;;5.25;1.30;;;12.40;99.90;;;;;;6139707;23;20009;-94
2023/08/31 02:00:28;;;;;;;7.32;1.30;;;12.50;99.90;;;;;;6119480;23;20017;-93
2023/08/31 02:04:09;;;;;;;;;;;;;;;;;;;;;
2023/08/31 02:07:08;;;;;;;;;;;;;;;;;;;;;
2023/08/31 02:09:55;;;;;;;3.80;1.00;;;12.50;99.90;;;;;;6139831;23;20013;-93
2023/08/31 02:12:47;;;;;;;5.95;1.15;;;12.50;99.90;;;;;;6141366;23;20370;-93
2023/08/31 02:15:56;;;;;;;5.85;1.27;;;12.50;99.90;;;;;;6123197;23;20017;-94
2023/08/31 02:18:34;;;;;;;4.78;0.95;;;12.50;99.90;;;;;;6140094;23;20009;-93
2023/08/31 02:21:59;;;;;;;7.22;1.40;;;12.50;99.90;;;;;;6134048;23;20013;-93
2023/08/31 02:25:42;;;;;;;;;;;;;;;;;;;;;
2023/08/31 02:28:49;;;;;;;5.88;1.10;;;12.60;99.90;;;;;;6164954;23;20092;-93
2023/08/31 02:32:01;;;;;;;3.30;1.15;;;12.60;99.90;;;;;;6142470;23;20012;-93
2023/08/31 02:35:25;;;;;;;4.10;1.20;;;12.60;99.90;;;;;;6091722;23;20006;-95
2023/08/31 02:38:50;;;;;;;5.22;1.00;;;12.60;99.90;;;;;;6166491;23;20084;-93
2023/08/31 02:42:05;;;;;;;5.05;1.10;;;12.60;99.90;;;;;;6023399;23;20030;-93
2023/08/31 02:44:59;;;;;;;5.43;1.30;;;12.70;99.90;;;;;;5980527;23;20011;-94
2023/08/31 02:47:36;;;;;;;5.20;1.20;;;12.60;99.90;;;;;;5956051;23;20377;-92
2023/08/31 02:50:17;;;;;;;4.82;1.27;;;12.60;99.90;;;;;;5998754;23;20385;-93
2023/08/31 02:53:07;;;;;;;8.88;1.42;;;12.70;99.90;;;;;;5953918;23;20011;-93
2023/08/31 02:56:02;;;;;;;3.80;1.20;;;12.70;99.90;;;;;;5981118;23;20088;-93
2023/08/31 02:58:58;;;;;;;5.50;1.40;;;12.70;99.90;;;;;;5922290;24;20012;-93
2023/08/31 03:02:06;;;;;;;5.10;1.65;;;12.70;99.90;;;;;;5944725;23;20106;-93
2023/08/31 03:04:58;;;;;;;5.97;1.60;;;12.70;99.90;;;;;;5992621;23;20038;-93
2023/08/31 03:07:55;;;;;;;4.55;1.48;;;12.70;99.90;;;;;;6102875;23;20010;-93
2023/08/31 03:11:19;;;;;;;;;;;;;;;;;;;;;
2023/08/31 03:14:12;;;;;;;;;;;;;;;;;;;;;
2023/08/31 03:17:22;;;;;;;;;;;;;;;;;;;;;
2023/08/31 03:20:15;;;;;;;7.00;1.42;;;12.70;99.90;;;;;;6160583;23;20454;-94
2023/08/31 03:22:56;;;;;;;;;;;;;;;;;;;;;
2023/08/31 03:26:04;;;;;;;9.02;2.20;;;12.70;99.90;;;;;;6135570;23;20084;-92
2023/08/31 03:28:40;;;;;;;4.90;1.42;;;12.70;99.90;;;;;;6112469;23;20033;-92
2023/08/31 03:31:30;;;;;;;;;;;;;;;;;;;;;
2023/08/31 03:34:39;;;;;;;8.32;1.83;;;12.70;99.90;;;;;;6153568;23;20013;-94
2023/08/31 03:37:31;;;;;;;4.55;1.40;;;12.70;99.90;;;;;;6111989;23;20009;-93
2023/08/31 03:40:38;;;;;;;;;;;;;;;;;;;;;
2023/08/31 03:43:49;;;;;;;;;;;;;;;;;;;;;
2023/08/31 03:46:36;;;;;;;4.95;1.20;;;12.60;99.90;;;;;;6139170;23;20020;-93
2023/08/31 03:49:34;;;;;;;7.15;1.92;;;12.60;99.90;;;;;;6113537;23;20016;-92
2023/08/31 03:52:20;;;;;;;5.95;1.40;;;12.60;99.90;;;;;;6087906;23;20013;-93
2023/08/31 03:55:02;;;;;;;5.57;1.90;;;12.60;99.90;;;;;;6111057;23;20013;-92
2023/08/31 03:57:58;;;;;;;3.70;1.15;;;12.60;99.90;;;;;;6114050;23;20014;-93
2023/08/31 04:01:14;;;;;;;5.65;1.50;;;12.60;99.90;;;;;;6141731;23;20025;-93
2023/08/31 04:03:57;;;;;;;4.50;1.45;;;12.60;99.90;;;;;;6121074;23;20013;-92
2023/08/31 04:07:30;;;;;;;5.78;1.70;;;12.50;99.90;;;;;;6132710;23;20013;-93
2023/08/31 04:10:19;;;;;;;4.40;1.30;;;12.50;99.90;;;;;;6093240;23;20009;-93
2023/08/31 04:13:08;;;;;;;6.18;1.50;;;12.50;99.90;;;;;;6096900;23;20017;-93
2023/08/31 04:16:02;;;;;;;6.75;1.40;;;12.50;99.90;;;;;;6122703;23;20013;-93
2023/08/31 04:19:04;;;;;;;5.88;1.48;;;12.50;99.90;;;;;;6092583;23;20084;-93
2023/08/31 04:21:41;;;;;;;;;;;;;;;;;;;;;
2023/08/31 04:24:38;;;;;;;4.95;1.60;;;12.40;99.90;;;;;;6143683;23;20272;-93
2023/08/31 04:28:04;;;;;;;4.85;1.50;;;12.40;99.90;;;;;;6118065;23;20033;-92
2023/08/31 04:30:58;;;;;;;5.93;1.40;;;12.40;99.90;;;;;;6120816;23;20029;-93
2023/08/31 04:33:44;;;;;;;4.50;1.45;;;12.40;99.90;;;;;;6137470;23;20005;-92
2023/08/31 04:37:02;;;;;;;5.15;1.58;;;12.40;99.90;;;;;;6140194;23;20625;-93
2023/08/31 04:39:48;;;;;;;7.40;1.80;;;12.40;99.90;;;;;;6139546;23;20027;-92
2023/08/31 04:42:38;;;;;;;4.95;1.80;;;12.40;99.90;;;;;;6140045;23;20048;-93
2023/08/31 04:45:36;;;;;;;4.80;1.55;;;12.40;99.90;;;;;;6124485;23;20013;-92
2023/08/31 04:48:39;;;;;;;;;;;;;;;;;;;;;
2023/08/31 04:51:56;;;;;;;;;;;;;;;;;;;;;
2023/08/31 04:54:50;;;;;;;8.85;2.30;;;12.40;99.90;;;;;;6124334;23;20059;-94
2023/08/31 04:57:31;;;;;;;6.85;1.77;;;12.40;99.90;;;;;;6116607;23;20013;-93
2023/08/31 05:00:19;;;;;;;4.45;1.63;;;12.30;99.90;;;;;;6142873;23;20071;-92
2023/08/31 05:02:59;;;;;;;5.15;1.55;;;12.40;99.90;;;;;;6143667;23;20051;-92
2023/08/31 05:05:46;;;;;;;5.97;1.75;;;12.30;99.90;;;;;;6140370;23;20071;-92
2023/08/31 05:08:29;;;;;;;5.07;1.48;;;12.40;99.90;;;;;;6095683;23;20009;-93
2023/08/31 05:11:18;;;;;;;7.32;1.67;;;12.40;99.90;;;;;;6123094;23;20012;-93
2023/08/31 05:14:11;;;;;;;4.63;1.48;;;12.40;99.90;;;;;;6132631;23;20017;-93
2023/08/31 05:17:15;;;;;;;3.83;1.40;;;12.30;99.90;;;;;;6146145;23;20028;-92
2023/08/31 05:20:14;;;;;;;;;;;;;;;;;;;;;
2023/08/31 05:23:02;;;;;;;5.22;1.50;;;12.30;99.90;;;;;;6139598;23;20008;-92
2023/08/31 05:25:34;;;;;;;5.00;1.40;;;12.30;99.90;;;;;;6119333;23;20084;-93
2023/08/31 05:28:30;;;;;;;5.60;1.48;;;12.30;99.90;;;;;;6119299;23;20009;-92
2023/08/31 05:31:21;;;;;;;5.35;1.45;;;12.30;99.90;;;;;;6120934;23;20009;-92
2023/08/31 05:34:42;;;;;;;;;;;;;;;;;;;;;
2023/08/31 05:38:03;;;;;;;6.85;1.65;;;12.30;99.90;;;;;;6105519;23;20016;-92
2023/08/31 05:40:46;;;;;;;4.03;1.25;;;12.30;99.90;;;;;;6189072;23;20070;-91
2023/08/31 05:47:26;;;;;;;;;;;;;;;;;;;;;
2023/08/31 05:50:43;;;;;;;6.60;1.70;;;12.30;99.90;;;;;;6166765;23;20009;-92
2023/08/31 05:53:35;;;;;;;;;;;;;;;;;;;;;
2023/08/31 05:56:29;;;;;;;8.30;1.58;;;12.40;99.90;;;;;;6146955;23;20031;-91
2023/08/31 05:59:31;;;;;;;;;;;;;;;;;;;;;
2023/08/31 06:02:12;;;;;;;6.40;1.83;;;12.40;99.90;;;;;;6187679;23;20009;-92
2023/08/31 06:05:18;;;;;;;;;;;;;;;;;;;;;
2023/08/31 06:08:07;;;;;;;3.35;1.60;;;12.50;99.90;;;;;;6144338;23;20005;-92
2023/08/31 06:11:25;;;;;;;;;;;;;;;;;;;;;
2023/08/31 06:14:12;;;;;;;8.23;2.38;;;12.50;99.90;;;;;;6162782;23;20032;-91
2023/08/31 06:17:28;;;;;;;6.60;2.17;;;12.60;99.90;;;;;;6102598;23;20391;-92
2023/08/31 06:20:19;;;;;;;6.65;1.67;;;12.60;99.90;;;;;;6138936;23;20011;-92
2023/08/31 06:23:42;;;;;;;7.55;1.80;;;12.60;99.90;;;;;;6109854;23;20013;-91
2023/08/31 06:26:30;;;;;;;4.88;1.80;;;12.70;99.90;;;;;;6164316;23;20008;-92
2023/08/31 06:29:14;;;;;;;;;;;;;;;;;;;;;
2023/08/31 06:31:59;;;;;;;7.45;1.60;;;12.80;99.90;;;;;;6143613;23;20326;-93
2023/08/31 06:34:54;;;;;;;;;;;;;;;;;;;;;
2023/08/31 06:41:47;;;;;;;6.20;1.60;;;13.00;99.90;;;;;;6163396;23;20001;-92
2023/08/31 06:48:33;;;;;;;6.50;1.50;;;13.20;99.90;;;;;;6136164;23;20012;-92
2023/08/31 06:51:32;;;;;;;;;;;;;;;;;;;;;
2023/08/31 06:54:33;;;;;;;;;;;;;;;;;;;;;
2023/08/31 07:20:22;;;;;;;4.45;1.00;;;14.30;99.90;;;;;;6072106;23;20086;-92
2023/08/31 07:31:21;;;;;;;5.90;1.48;;;14.60;99.90;;;;;;5961491;23;20019;-93
2023/08/31 07:34:27;;;;;;;;;;;;;;;;;;;;;
2023/08/31 07:42:29;;;;;;;;;;;;;;;;;;;;;
2023/08/31 07:54:11;;;;;;;3.30;0.77;;;15.70;99.90;;;;;;6072656;23;20013;-93
2023/08/31 08:05:43;;;;;;;2.63;0.90;;;15.10;99.90;;;;;;6043408;23;20098;-94
2023/08/31 08:18:15;;;;;;;;;;;;;;;;;;;;;
2023/08/31 08:25:10;;;;;;;;;;;;;;;;;;;;;
2023/08/31 08:28:08;;;;;;;7.22;1.42;;;15.50;99.90;;;;;;6085189;23;20270;-94
2023/08/31 08:30:50;;;;;;;6.38;1.30;;;15.60;99.90;;;;;;6142278;23;20013;-93
2023/08/31 08:33:49;;;;;;;8.68;1.45;;;15.70;99.90;;;;;;6125277;23;20270;-93
2023/08/31 08:36:38;;;;;;;;;;;;;;;;;;;;;
2023/08/31 08:39:22;;;;;;;6.97;1.40;;;16.10;99.90;;;;;;6165052;23;20131;-94
2023/08/31 08:42:25;;;;;;;4.72;1.02;;;16.30;99.90;;;;;;6143492;23;20440;-94
2023/08/31 08:45:38;;;;;;;7.28;1.20;;;16.30;99.90;;;;;;6120531;23;20039;-94
2023/08/31 08:48:40;;;;;;;5.97;1.10;;;16.20;99.90;;;;;;6145857;23;20267;-93
2023/08/31 08:51:50;;;;;;;6.65;1.20;;;16.10;99.90;;;;;;6145855;23;20012;-94
2023/08/31 08:57:30;;;;;;;6.53;1.25;;;16.00;99.90;;;;;;6130895;23;20017;-94
2023/08/31 09:00:25;;;;;;;;;;;;;;;;;;;;;
2023/08/31 09:03:30;;;;;;;5.95;1.10;;;16.40;99.90;;;;;;6145307;23;20217;-93
2023/08/31 09:06:43;;;;;;;;;;;;;;;;;;;;;
2023/08/31 09:10:04;;;;;;;;;;;;;;;;;;;;;
2023/08/31 09:12:41;;;;;;;2.85;1.20;;;16.80;99.90;;;;;;6140745;23;20009;-93
2023/08/31 09:15:57;;;;;;;5.18;1.10;;;17.00;99.90;;;;;;6141884;23;20311;-93
2023/08/31 09:19:09;;;;;;;4.53;1.08;;;17.10;99.90;;;;;;6145500;23;20011;-94
2023/08/31 09:22:52;;;;;;;;;;;;;;;;;;;;;
2023/08/31 09:29:54;;;;;;;5.07;1.17;;;17.40;99.90;;;;;;6157192;23;20024;-92
2023/08/31 09:32:41;;;;;;;3.95;1.05;;;17.40;99.90;;;;;;6139899;23;20096;-95
2023/08/31 09:36:04;;;;;;;3.60;0.98;;;17.20;99.90;;;;;;6138080;23;20013;-93
2023/08/31 09:38:52;;;;;;;5.70;1.20;;;17.20;99.90;;;;;;6122189;23;20001;-93
2023/08/31 09:42:07;;;;;;;4.32;1.08;;;17.00;99.90;;;;;;6095003;23;20084;-93
2023/08/31 09:45:06;;;;;;;4.85;1.40;;;16.90;99.90;;;;;;6144179;23;20009;-93
2023/08/31 09:48:13;;;;;;;3.58;1.20;;;16.70;99.90;;;;;;6144159;23;20016;-93
2023/08/31 09:51:17;;;;;;;6.00;1.30;;;16.60;99.90;;;;;;6119452;23;20013;-93
2023/08/31 09:54:16;;;;;;;4.82;1.25;;;16.80;99.90;;;;;;6146901;23;20047;-93
2023/08/31 09:57:20;;;;;;;4.93;1.38;;;16.90;99.90;;;;;;6145118;23;20386;-93
2023/08/31 09:59:58;;;;;;;5.68;1.13;;;17.00;99.90;;;;;;6138794;23;20012;-93
2023/08/31 10:03:33;;;;;;;4.38;1.13;;;17.10;99.90;;;;;;6135316;23;20021;-93
2023/08/31 10:10:03;;;;;;;7.70;1.55;;;17.40;99.90;;;;;;6145341;23;20009;-93
2023/08/31 10:13:02;;;;;;;;;;;;;;;;;;;;;
2023/08/31 10:16:15;;;;;;;4.53;0.98;;;17.40;99.90;;;;;;6162343;23;20012;-93
2023/08/31 10:18:58;;;;;;;2.75;0.90;;;17.60;99.90;;;;;;6097012;23;20100;-92
2023/08/31 10:21:50;;;;;;;3.50;1.10;;;17.60;99.90;;;;;;6141923;23;20048;-92
2023/08/31 10:24:59;;;;;;;4.03;1.17;;;17.70;99.90;;;;;;6118779;23;20374;-93
2023/08/31 10:27:51;;;;;;;;;;;;;;;;;;;;;
2023/08/31 10:30:34;;;;;;;4.93;1.23;;;17.80;99.90;;;;;;6139939;23;20019;-93
2023/08/31 10:34:03;;;;;;;5.45;1.20;;;17.70;99.90;;;;;;6124827;23;20387;-93
2023/08/31 10:37:18;;;;;;;4.90;1.20;;;17.70;99.90;;;;;;6107097;23;20013;-92
2023/08/31 10:40:16;;;;;;;6.80;1.55;;;17.70;99.90;;;;;;6102355;23;20017;-92
2023/08/31 10:43:17;;;;;;;4.22;0.90;;;17.80;99.90;;;;;;6097231;23;20032;-93
2023/08/31 10:46:00;;;;;;;5.68;1.27;;;17.80;99.90;;;;;;6139783;23;20048;-92
2023/08/31 10:48:54;;;;;;;5.22;1.15;;;17.70;99.90;;;;;;6121823;23;20009;-94
2023/08/31 10:51:50;;;;;;;5.35;1.10;;;17.60;99.90;;;;;;6142600;23;20012;-93
2023/08/31 10:55:23;;;;;;;;;;;;;;;;;;;;;
2023/08/31 10:58:52;;;;;;;;;;;;;;;;;;;;;
2023/08/31 11:06:36;;;;;;;7.57;1.52;;;17.70;99.90;;;;;;6192808;23;20084;-93
2023/08/31 11:09:36;;;;;;;3.67;1.05;;;17.80;99.90;;;;;;6146925;23;20012;-92
2023/08/31 11:12:25;;;;;;;6.55;1.20;;;17.70;99.90;;;;;;6094702;23;20021;-93
2023/08/31 11:15:42;;;;;;;6.75;1.10;;;17.70;99.90;;;;;;6142131;23;20054;-93
2023/08/31 11:18:32;;;;;;;5.25;1.25;;;17.90;99.90;;;;;;6146693;23;20039;-93
2023/08/31 11:21:23;;;;;;;5.85;1.30;;;18.00;99.90;;;;;;6143362;23;20005;-93
2023/08/31 11:25:00;;;;;;;6.10;1.60;;;18.20;99.90;;;;;;6120020;23;20057;-93
2023/08/31 11:31:01;;;;;;;5.07;1.20;;;18.10;99.90;;;;;;6077365;23;20021;-93
2023/08/31 11:33:48;;;;;;;5.97;1.13;;;18.00;99.90;;;;;;6088065;23;20017;-93
2023/08/31 11:37:34;;;;;;;;;;;;;;;;;;;;;
2023/08/31 11:40:45;;;;;;;3.20;1.13;;;18.10;99.90;;;;;;6145588;23;20005;-94
2023/08/31 11:52:44;;;;;;;5.35;1.40;;;18.20;99.90;;;;;;6046843;23;20431;-91
2023/08/31 11:55:54;;;;;;;4.78;1.10;;;18.10;99.90;;;;;;6127102;23;20058;-92
2023/08/31 11:58:34;;;;;;;6.35;1.50;;;18.10;99.90;;;;;;6141078;23;20039;-92
2023/08/31 12:02:09;;;;;;;;;;;;;;;;;;;;;
2023/08/31 12:04:48;;;;;;;7.50;1.30;;;18.10;99.90;;;;;;6127147;23;20033;-92
2023/08/31 12:07:33;;;;;;;7.85;1.30;;;18.10;99.90;;;;;;6141946;23;20020;-93
2023/08/31 12:10:14;;;;;;;6.20;1.30;;;18.20;99.90;;;;;;6096823;23;20096;-92
2023/08/31 12:12:56;;;;;;;5.05;1.20;;;18.20;99.90;;;;;;6139757;23;20352;-91
2023/08/31 12:15:38;;;;;;;7.78;1.30;;;18.10;99.90;;;;;;6122521;23;20334;-93
2023/08/31 12:18:23;;;;;;;;;;;18.00;99.90;;;;;;6140801;23;20009;-91
2023/08/31 12:21:13;;;;;;;5.43;1.30;;;18.00;99.90;;;;;;6143844;23;19911;-90
2023/08/31 12:24:16;;;;;;;7.93;1.38;;;18.00;99.90;;;;;;6124257;23;20088;-91
2023/08/31 12:26:56;;;;;;;;;;;18.00;99.90;;;;;;6118133;23;20009;-90
2023/08/31 12:29:48;;;;;;;4.55;1.42;;;18.30;99.90;;;;;;6118800;23;19911;-91
2023/08/31 12:32:21;;;;;;;5.43;1.20;;;18.40;99.90;;;;;;6093002;23;20394;-91
2023/08/31 12:35:14;;;;;;;;;;;;;;;;;;;;;
2023/08/31 12:42:04;;;;;;;5.03;1.27;;;18.10;99.90;;;;;;6133794;23;20024;-91
2023/08/31 12:44:56;;;;;;;5.72;1.30;;;18.00;99.90;;;;;;6094940;23;20017;-92
2023/08/31 12:47:40;;;;;;;4.38;1.23;;;17.90;99.90;;;;;;6139655;23;20005;-91
2023/08/31 12:50:31;;;;;;;6.10;1.40;;;17.90;99.90;;;;;;6114651;23;20028;-91
2023/08/31 12:53:19;;;;;;;4.75;1.30;;;17.90;99.90;;;;;;6115644;23;20017;-92
2023/08/31 12:56:04;;;;;;;5.72;1.40;;;18.00;99.90;;;;;;6140994;23;20009;-91
2023/08/31 12:59:34;;;;;;;3.88;1.35;;;18.10;99.90;;;;;;6119317;23;20009;-91
2023/08/31 13:02:31;;;;;;;5.95;1.20;;;18.20;99.90;;;;;;6151584;23;20386;-92
2023/08/31 13:05:25;;;;;;;5.70;1.60;;;18.10;99.90;;;;;;6106138;23;20401;-92
2023/08/31 13:08:27;;;;;;;4.10;1.27;;;18.00;99.90;;;;;;6119038;23;20248;-92
2023/08/31 13:11:19;;;;;;;6.78;1.58;;;18.00;99.90;;;;;;6098258;23;20009;-91
2023/08/31 13:14:27;;;;;;;4.50;1.52;;;17.90;99.90;;;;;;6128612;23;20009;-91
2023/08/31 13:20:25;;;;;;;7.15;1.60;;;17.80;99.90;;;;;;6121397;23;20005;-91
2023/08/31 13:23:27;;;;;;;4.88;1.33;;;17.80;99.90;;;;;;6124588;23;20020;-91
2023/08/31 13:29:58;;;;;;;5.22;1.50;;;17.70;99.90;;;;;;6147321;23;20039;-92
2023/08/31 13:33:06;;;;;;;5.38;1.20;;;17.60;99.90;;;;;;6135839;23;20019;-92
2023/08/31 13:36:14;;;;;;;5.18;1.70;;;17.60;99.90;;;;;;6147704;23;20069;-91
2023/08/31 13:39:41;;;;;;;6.85;1.42;;;17.80;99.90;;;;;;6107411;23;20013;-92
2023/08/31 13:43:05;;;;;;;4.63;1.10;;;17.90;99.90;;;;;;6162927;23;20017;-92
2023/08/31 13:48:58;;;;;;;5.20;1.23;;;18.20;99.90;;;;;;6140110;23;20271;-91
2023/08/31 13:52:47;;;;;;;;;;;;;;;;;;;;;
2023/08/31 13:56:24;;;;;;;5.85;1.40;;;18.30;99.90;;;;;;6142224;23;20012;-92
2023/08/31 14:03:08;;;;;;;5.47;1.35;;;18.50;99.90;;;;;;5994199;23;20019;-91
2023/08/31 14:06:07;;;;;;;4.43;1.27;;;18.60;99.90;;;;;;6124162;23;20013;-91
2023/08/31 14:08:57;;;;;;;5.57;1.35;;;18.60;99.90;;;;;;6124331;23;20020;-92
2023/08/31 14:11:51;;;;;;;4.43;1.42;;;18.60;99.90;;;;;;6108713;23;20045;-92
2023/08/31 14:15:06;;;;;;;;;;;;;;;;;;;;;
2023/08/31 14:18:40;;;;;;;;;;;;;;;;;;;;;
2023/08/31 14:21:52;;;;;;;;;;;;;;;;;;;;;
2023/08/31 14:25:27;;;;;;;4.47;1.40;;;18.60;99.90;;;;;;6119936;23;20033;-92
2023/08/31 14:27:56;;;;;;;5.30;1.30;;;18.50;99.90;;;;;;6141133;23;20041;-91
2023/08/31 14:31:08;;;;;;;7.00;1.45;;;18.30;99.90;;;;;;6122555;23;20096;-91
2023/08/31 14:34:20;;;;;;;4.55;1.20;;;18.20;99.90;;;;;;6145966;23;20013;-91
2023/08/31 14:36:58;;;;;;;;;;;;;;;;;;;;;
2023/08/31 14:40:05;;;;;;;6.82;1.40;;;18.00;99.90;;;;;;6143818;23;20101;-90
2023/08/31 14:42:54;;;;;;;5.93;1.50;;;17.80;99.90;;;;;;6120529;23;20084;-91
2023/08/31 14:45:28;;;;;;;5.05;1.60;;;17.80;99.90;;;;;;6094529;23;20021;-91
2023/08/31 14:49:18;;;;;;;5.70;1.67;;;17.70;99.90;;;;;;6166435;23;20040;-91
2023/08/31 14:51:46;;;;;;;6.07;1.40;;;17.60;99.90;;;;;;6150051;23;20013;-91
2023/08/31 14:55:15;;;;;;;5.22;1.40;;;17.50;99.90;;;;;;6120324;23;20009;-90
2023/08/31 14:58:06;;;;;;;8.77;1.42;;;17.50;99.90;;;;;;6143163;23;20048;-90
2023/08/31 15:01:03;;;;;;;7.93;1.60;;;17.50;99.90;;;;;;6116748;23;20012;-90
2023/08/31 15:04:02;;;;;;;7.75;2.20;;;17.60;99.90;;;;;;6165239;23;20027;-91
2023/08/31 15:07:03;;;;;;;;;;;;;;;;;;;;;
2023/08/31 15:10:18;;;;;;;;;;;;;;;;;;;;;
2023/08/31 15:13:09;;;;;;;5.60;1.40;;;17.70;99.90;;;;;;6140567;23;20067;-92
2023/08/31 15:16:28;;;;;;;;;;;;;;;;;;;;;
2023/08/31 15:19:59;;;;;;;;;;;;;;;;;;;;;
2023/08/31 15:23:21;;;;;;;;;;;;;;;;;;;;;
2023/08/31 15:26:20;;;;;;;;;;;;;;;;;;;;;
2023/08/31 15:29:24;;;;;;;;;;;;;;;;;;;;;
2023/08/31 15:33:15;;;;;;;5.65;1.27;;;18.20;99.90;;;;;;6158406;23;20016;-91
2023/08/31 15:36:30;;;;;;;4.93;1.40;;;18.10;99.90;;;;;;6139458;23;19997;-93
2023/08/31 15:39:17;;;;;;;;;;;;;;;;;;;;;
2023/08/31 15:41:59;;;;;;;4.47;1.38;;;18.10;99.90;;;;;;6164166;23;20028;-91
2023/08/31 15:45:26;;;;;;;;;;;;;;;;;;;;;
2023/08/31 15:49:10;;;;;;;8.45;1.27;;;18.10;99.90;;;;;;6129103;23;20013;-92
2023/08/31 15:52:06;;;;;;;;;;;;;;;;;;;;;
2023/08/31 15:54:56;;;;;;;7.97;1.70;;;18.20;99.90;;;;;;6144027;23;20013;-92
2023/08/31 16:01:33;;;;;;;6.05;1.60;;;18.50;99.90;;;;;;6118605;23;20021;-92
2023/08/31 16:04:29;;;;;;;;;;;;;;;;;;;;;
2023/08/31 16:07:47;;;;;;;;;;;;;;;;;;;;;
2023/08/31 16:11:05;;;;;;;;;;;;;;;;;;;;;
2023/08/31 16:14:15;;;;;;;4.60;1.13;;;19.40;99.90;;;;;;6175510;23;20474;-91
2023/08/31 16:16:59;;;;;;;6.50;1.20;;;19.50;99.90;;;;;;6123292;23;20075;-92
2023/08/31 16:20:37;;;;;;;;;;;;;;;;;;;;;
2023/08/31 16:23:16;;;;;;;3.47;1.30;;;19.50;99.90;;;;;;6140074;23;20009;-92
2023/08/31 16:26:13;;;;;;;5.22;1.33;;;19.50;99.90;;;;;;6148389;23;20012;-91
2023/08/31 16:29:12;;;;;;;5.03;1.23;;;19.40;99.90;;;;;;6105553;23;20387;-91
2023/08/31 16:32:15;;;;;;;5.80;1.48;;;19.40;99.90;;;;;;6142983;23;20013;-91
2023/08/31 16:35:05;;;;;;;;;;;;;;;;;;;;;
2023/08/31 16:37:52;;;;;;;4.55;1.50;;;19.40;99.90;;;;;;6164183;23;20274;-91
2023/08/31 16:41:03;;;;;;;5.15;1.30;;;19.40;99.90;;;;;;6138587;23;20005;-91
2023/08/31 16:43:45;;;;;;;8.57;1.27;;;19.20;99.90;;;;;;6142732;23;20013;-92
2023/08/31 16:54:45;;;;;;;6.47;1.45;;;18.60;99.90;;;;;;6190594;23;20371;-95
2023/08/31 16:57:48;;;;;;;9.85;1.40;;;18.40;99.90;;;;;;6098325;23;20457;-96
2023/08/31 18:06:07;;;;;;;;;;;;;;;;;;;;;
2023/08/31 18:29:24;;;;;;;6.55;1.63;;;16.60;99.90;;;;;;5985866;23;20012;-95
2023/08/31 18:56:01;;;;;;;8.93;1.67;;;16.20;99.90;;;;;;6134595;23;20040;-94
2023/08/31 19:00:28;;;;;;;4.80;1.63;;;16.10;99.90;;;;;;6042549;23;20376;-94
2023/08/31 21:56:26;;;;;;;7.43;3.30;;;14.00;99.90;;;;;;6117232;23;20014;-94
